createdAt,value
2019-02-26T00:00:23.869Z,21.22
2019-02-26T00:01:24.120Z,21.17
2019-02-26T00:02:23.660Z,21.19
2019-02-26T00:03:24.001Z,21.16
2019-02-26T00:04:23.203Z,21.14
2019-02-26T00:05:23.700Z,21.28
2019-02-26T00:06:24.848Z,21.19
2019-02-26T00:07:24.936Z,21.14
2019-02-26T00:08:24.026Z,21.22
2019-02-26T00:09:22.612Z,21.24
2019-02-26T00:10:24.602Z,21.17
2019-02-26T00:11:24.339Z,21.22
2019-02-26T00:12:23.918Z,21.25
2019-02-26T00:13:24.748Z,21.22
2019-02-26T00:14:22.579Z,21.14
2019-02-26T00:15:21.602Z,21.22
2019-02-26T00:16:21.553Z,21.13
2019-02-26T00:17:21.828Z,21.25
2019-02-26T00:18:23.457Z,21.16
2019-02-26T00:19:21.415Z,21.14
2019-02-26T00:20:21.370Z,21.25
2019-02-26T00:21:22.700Z,21.22
2019-02-26T00:22:21.277Z,21.19
2019-02-26T00:23:21.947Z,21.17
2019-02-26T00:24:21.183Z,21.21
2019-02-26T00:25:21.457Z,21.24
2019-02-26T00:26:22.430Z,21.19
2019-02-26T00:27:21.047Z,21.19
2019-02-26T00:28:22.090Z,21.21
2019-02-26T00:29:21.503Z,21.21
2019-02-26T00:30:20.907Z,21.21
2019-02-26T00:31:21.538Z,21.21
2019-02-26T00:32:20.813Z,21.17
2019-02-26T00:33:22.319Z,21.22
2019-02-26T00:34:20.721Z,21.16
2019-02-26T00:35:22.614Z,21.27
2019-02-26T00:36:20.626Z,21.22
2019-02-26T00:37:22.240Z,21.25
2019-02-26T00:38:20.534Z,21.21
2019-02-26T00:39:21.041Z,21.19
2019-02-26T00:40:20.442Z,21.19
2019-02-26T00:41:22.600Z,21.16
2019-02-26T00:42:23.571Z,21.19
2019-02-26T00:43:23.318Z,21.19
2019-02-26T00:44:21.281Z,21.27
2019-02-26T00:45:24.704Z,21.10
2019-02-26T00:46:20.162Z,21.22
2019-02-26T00:47:20.116Z,21.19
2019-02-26T00:48:20.070Z,21.19
2019-02-26T00:49:21.592Z,21.12
2019-02-26T00:50:20.045Z,21.16
2019-02-26T00:51:21.026Z,21.17
2019-02-26T00:52:19.885Z,21.21
2019-02-26T00:53:21.751Z,21.17
2019-02-26T00:54:22.164Z,21.17
2019-02-26T00:55:23.194Z,21.17
2019-02-26T00:56:19.700Z,21.27
2019-02-26T00:57:19.653Z,21.21
2019-02-26T00:58:19.606Z,21.21
2019-02-26T00:59:19.560Z,21.13
2019-02-26T01:00:19.514Z,21.07
2019-02-26T01:01:21.578Z,21.17
2019-02-26T01:02:19.422Z,21.14
2019-02-26T01:03:19.374Z,21.14
2019-02-26T01:04:19.328Z,21.17
2019-02-26T01:05:19.282Z,21.21
2019-02-26T01:06:19.235Z,21.14
2019-02-26T01:07:21.217Z,21.24
2019-02-26T01:08:19.843Z,21.21
2019-02-26T01:09:19.097Z,21.14
2019-02-26T01:10:21.217Z,21.19
2019-02-26T01:11:19.467Z,21.14
2019-02-26T01:12:18.957Z,21.17
2019-02-26T01:13:20.298Z,21.10
2019-02-26T01:14:20.333Z,21.14
2019-02-26T01:15:18.819Z,21.10
2019-02-26T01:16:18.773Z,21.13
2019-02-26T01:17:18.935Z,21.10
2019-02-26T01:18:20.728Z,21.13
2019-02-26T01:19:19.843Z,21.14
2019-02-26T01:20:19.653Z,21.16
2019-02-26T01:21:22.148Z,21.10
2019-02-26T01:22:18.493Z,21.10
2019-02-26T01:23:21.392Z,21.10
2019-02-26T01:24:18.402Z,21.10
2019-02-26T01:25:20.521Z,21.12
2019-02-26T01:26:18.309Z,21.09
2019-02-26T01:27:18.261Z,21.10
2019-02-26T01:28:20.294Z,21.09
2019-02-26T01:29:20.709Z,21.06
2019-02-26T01:30:23.573Z,21.14
2019-02-26T01:31:19.788Z,21.16
2019-02-26T01:32:20.476Z,21.12
2019-02-26T01:33:17.985Z,21.10
2019-02-26T01:34:18.561Z,21.16
2019-02-26T01:35:17.890Z,21.13
2019-02-26T01:36:19.168Z,21.09
2019-02-26T01:37:17.798Z,21.10
2019-02-26T01:38:18.805Z,21.07
2019-02-26T01:39:19.200Z,21.07
2019-02-26T01:40:20.631Z,21.09
2019-02-26T01:41:18.646Z,21.07
2019-02-26T01:42:19.306Z,21.09
2019-02-26T01:43:17.519Z,21.10
2019-02-26T01:44:17.473Z,21.10
2019-02-26T01:45:19.376Z,21.06
2019-02-26T01:46:18.778Z,21.03
2019-02-26T01:47:19.510Z,21.06
2019-02-26T01:48:18.562Z,21.10
2019-02-26T01:49:19.152Z,21.09
2019-02-26T01:50:17.195Z,21.09
2019-02-26T01:51:19.226Z,21.12
2019-02-26T01:52:17.512Z,21.10
2019-02-26T01:53:19.228Z,21.09
2019-02-26T01:54:17.013Z,21.10
2019-02-26T01:55:18.394Z,21.03
2019-02-26T01:56:19.558Z,21.06
2019-02-26T01:57:17.476Z,21.07
2019-02-26T01:58:16.837Z,21.04
2019-02-26T01:59:19.007Z,21.09
2019-02-26T02:00:16.730Z,21.01
2019-02-26T02:01:17.476Z,21.01
2019-02-26T02:02:18.118Z,20.99
2019-02-26T02:03:16.591Z,21.09
2019-02-26T02:04:17.170Z,21.03
2019-02-26T02:05:16.501Z,21.03
2019-02-26T02:06:18.155Z,20.98
2019-02-26T02:07:16.406Z,21.09
2019-02-26T02:08:17.973Z,21.04
2019-02-26T02:09:18.126Z,21.03
2019-02-26T02:10:16.266Z,21.03
2019-02-26T02:11:16.220Z,21.06
2019-02-26T02:12:16.173Z,21.01
2019-02-26T02:13:16.130Z,21.06
2019-02-26T02:14:17.082Z,21.03
2019-02-26T02:15:20.457Z,20.98
2019-02-26T02:16:15.990Z,20.98
2019-02-26T02:17:16.042Z,21.03
2019-02-26T02:18:17.972Z,21.12
2019-02-26T02:19:20.099Z,20.98
2019-02-26T02:20:18.700Z,20.99
2019-02-26T02:21:15.759Z,21.01
2019-02-26T02:22:16.831Z,21.01
2019-02-26T02:23:15.663Z,21.01
2019-02-26T02:24:17.559Z,21.04
2019-02-26T02:25:15.572Z,21.04
2019-02-26T02:26:15.690Z,20.99
2019-02-26T02:27:19.559Z,21.06
2019-02-26T02:28:16.710Z,20.99
2019-02-26T02:29:16.921Z,21.01
2019-02-26T02:30:22.573Z,21.01
2019-02-26T02:31:15.306Z,21.01
2019-02-26T02:32:15.251Z,20.99
2019-02-26T02:33:17.397Z,21.01
2019-02-26T02:34:15.156Z,20.98
2019-02-26T02:35:18.400Z,20.95
2019-02-26T02:36:17.565Z,20.99
2019-02-26T02:37:17.364Z,21.04
2019-02-26T02:38:19.537Z,21.03
2019-02-26T02:39:15.751Z,21.03
2019-02-26T02:40:14.877Z,21.04
2019-02-26T02:41:14.830Z,21.07
2019-02-26T02:42:17.092Z,21.01
2019-02-26T02:43:16.090Z,21.01
2019-02-26T02:44:15.435Z,20.99
2019-02-26T02:45:20.165Z,21.07
2019-02-26T02:46:14.595Z,20.95
2019-02-26T02:47:14.548Z,20.95
2019-02-26T02:48:14.506Z,20.92
2019-02-26T02:49:15.710Z,20.98
2019-02-26T02:50:15.200Z,20.92
2019-02-26T02:51:14.362Z,20.99
2019-02-26T02:52:14.317Z,20.97
2019-02-26T02:53:14.271Z,20.95
2019-02-26T02:54:15.536Z,20.92
2019-02-26T02:55:18.607Z,20.94
2019-02-26T02:56:15.346Z,20.95
2019-02-26T02:57:14.093Z,20.92
2019-02-26T02:58:15.858Z,20.94
2019-02-26T02:59:14.659Z,20.95
2019-02-26T03:00:13.996Z,20.98
2019-02-26T03:01:16.510Z,21.01
2019-02-26T03:02:15.081Z,20.91
2019-02-26T03:03:13.807Z,20.92
2019-02-26T03:04:17.309Z,20.97
2019-02-26T03:05:13.729Z,20.92
2019-02-26T03:06:13.666Z,20.89
2019-02-26T03:07:15.225Z,20.94
2019-02-26T03:08:15.838Z,20.94
2019-02-26T03:09:15.292Z,20.94
2019-02-26T03:10:13.481Z,20.97
2019-02-26T03:11:13.434Z,20.95
2019-02-26T03:12:13.387Z,20.97
2019-02-26T03:13:14.412Z,20.97
2019-02-26T03:14:13.831Z,20.95
2019-02-26T03:15:13.248Z,20.88
2019-02-26T03:16:13.973Z,20.94
2019-02-26T03:17:14.938Z,20.92
2019-02-26T03:18:14.889Z,20.92
2019-02-26T03:19:14.534Z,20.94
2019-02-26T03:20:13.016Z,20.94
2019-02-26T03:21:12.970Z,20.99
2019-02-26T03:22:15.242Z,20.92
2019-02-26T03:23:15.967Z,20.89
2019-02-26T03:24:12.830Z,20.85
2019-02-26T03:25:14.858Z,20.87
2019-02-26T03:26:15.111Z,20.82
2019-02-26T03:27:12.690Z,20.89
2019-02-26T03:28:12.646Z,20.89
2019-02-26T03:29:12.598Z,20.88
2019-02-26T03:30:20.741Z,20.91
2019-02-26T03:31:12.505Z,20.87
2019-02-26T03:32:12.459Z,20.88
2019-02-26T03:33:12.414Z,20.82
2019-02-26T03:34:18.946Z,20.85
2019-02-26T03:35:13.245Z,20.87
2019-02-26T03:36:14.132Z,20.82
2019-02-26T03:37:12.227Z,20.82
2019-02-26T03:38:12.179Z,20.82
2019-02-26T03:39:12.134Z,20.85
2019-02-26T03:40:12.087Z,20.87
2019-02-26T03:41:12.040Z,20.84
2019-02-26T03:42:14.162Z,20.77
2019-02-26T03:43:13.085Z,20.87
2019-02-26T03:44:12.101Z,20.82
2019-02-26T03:45:11.855Z,20.84
2019-02-26T03:46:11.807Z,20.80
2019-02-26T03:47:11.761Z,20.82
2019-02-26T03:48:11.715Z,20.82
2019-02-26T03:49:11.668Z,20.89
2019-02-26T03:50:11.622Z,20.84
2019-02-26T03:51:11.576Z,20.77
2019-02-26T03:52:15.387Z,20.85
2019-02-26T03:53:11.483Z,20.87
2019-02-26T03:54:11.435Z,20.82
2019-02-26T03:55:12.099Z,20.79
2019-02-26T03:56:12.526Z,20.82
2019-02-26T03:57:12.094Z,20.84
2019-02-26T03:58:11.250Z,20.77
2019-02-26T03:59:11.837Z,20.82
2019-02-26T04:00:11.473Z,20.85
2019-02-26T04:01:13.648Z,20.80
2019-02-26T04:02:12.043Z,20.82
2019-02-26T04:03:12.460Z,20.88
2019-02-26T04:04:11.122Z,20.85
2019-02-26T04:05:10.931Z,20.84
2019-02-26T04:06:12.158Z,20.80
2019-02-26T04:07:10.849Z,20.84
2019-02-26T04:08:10.784Z,20.85
2019-02-26T04:09:11.093Z,20.85
2019-02-26T04:10:10.691Z,20.82
2019-02-26T04:11:10.645Z,20.82
2019-02-26T04:12:12.945Z,20.84
2019-02-26T04:13:10.555Z,20.85
2019-02-26T04:14:12.640Z,20.84
2019-02-26T04:15:10.464Z,20.84
2019-02-26T04:16:10.418Z,20.79
2019-02-26T04:17:10.368Z,20.82
2019-02-26T04:18:10.320Z,20.84
2019-02-26T04:19:10.300Z,20.82
2019-02-26T04:20:10.228Z,20.80
2019-02-26T04:21:12.190Z,20.85
2019-02-26T04:22:12.445Z,20.85
2019-02-26T04:23:11.397Z,20.88
2019-02-26T04:24:11.429Z,20.82
2019-02-26T04:25:10.039Z,20.84
2019-02-26T04:26:10.158Z,20.80
2019-02-26T04:27:09.894Z,20.84
2019-02-26T04:28:10.967Z,20.79
2019-02-26T04:29:09.803Z,20.88
2019-02-26T04:30:10.997Z,20.80
2019-02-26T04:31:09.710Z,20.84
2019-02-26T04:32:11.989Z,20.80
2019-02-26T04:33:11.638Z,20.80
2019-02-26T04:34:09.570Z,20.80
2019-02-26T04:35:09.523Z,20.85
2019-02-26T04:36:11.673Z,20.85
2019-02-26T04:37:10.357Z,20.77
2019-02-26T04:38:09.382Z,20.84
2019-02-26T04:39:10.605Z,20.82
2019-02-26T04:40:11.865Z,20.79
2019-02-26T04:41:12.037Z,20.87
2019-02-26T04:42:11.400Z,20.84
2019-02-26T04:43:10.423Z,20.76
2019-02-26T04:44:09.106Z,20.82
2019-02-26T04:45:09.536Z,20.84
2019-02-26T04:46:10.904Z,20.82
2019-02-26T04:47:08.964Z,20.85
2019-02-26T04:48:08.968Z,20.77
2019-02-26T04:49:08.872Z,20.87
2019-02-26T04:50:09.171Z,20.84
2019-02-26T04:51:08.778Z,20.73
2019-02-26T04:52:10.908Z,20.80
2019-02-26T04:53:10.940Z,20.72
2019-02-26T04:54:08.641Z,20.76
2019-02-26T04:55:08.591Z,20.79
2019-02-26T04:56:12.839Z,20.76
2019-02-26T04:57:08.499Z,20.80
2019-02-26T04:58:09.226Z,20.82
2019-02-26T04:59:09.774Z,20.72
2019-02-26T05:00:10.551Z,20.77
2019-02-26T05:01:10.120Z,20.79
2019-02-26T05:02:08.266Z,20.76
2019-02-26T05:03:11.230Z,20.79
2019-02-26T05:04:08.175Z,20.77
2019-02-26T05:05:08.128Z,20.77
2019-02-26T05:06:10.627Z,20.80
2019-02-26T05:07:12.813Z,20.80
2019-02-26T05:08:10.489Z,20.76
2019-02-26T05:09:08.500Z,20.74
2019-02-26T05:10:07.893Z,20.76
2019-02-26T05:11:07.847Z,20.77
2019-02-26T05:12:07.801Z,20.82
2019-02-26T05:13:09.635Z,20.76
2019-02-26T05:14:09.131Z,20.76
2019-02-26T05:15:11.577Z,20.76
2019-02-26T05:16:07.615Z,20.73
2019-02-26T05:17:07.568Z,20.79
2019-02-26T05:18:07.574Z,20.82
2019-02-26T05:19:07.476Z,20.76
2019-02-26T05:20:10.656Z,20.80
2019-02-26T05:21:08.378Z,20.76
2019-02-26T05:22:07.335Z,20.74
2019-02-26T05:23:07.289Z,20.80
2019-02-26T05:24:07.243Z,20.76
2019-02-26T05:25:10.428Z,20.74
2019-02-26T05:26:08.359Z,20.70
2019-02-26T05:27:09.541Z,20.72
2019-02-26T05:28:09.509Z,20.73
2019-02-26T05:29:07.067Z,20.70
2019-02-26T05:30:09.431Z,20.79
2019-02-26T05:31:09.036Z,20.66
2019-02-26T05:32:09.208Z,20.76
2019-02-26T05:33:06.824Z,20.82
2019-02-26T05:34:06.778Z,20.73
2019-02-26T05:35:06.732Z,20.74
2019-02-26T05:36:08.785Z,20.73
2019-02-26T05:37:08.127Z,20.74
2019-02-26T05:38:07.711Z,20.77
2019-02-26T05:39:06.545Z,20.82
2019-02-26T05:40:09.052Z,20.77
2019-02-26T05:41:06.452Z,20.77
2019-02-26T05:42:06.410Z,20.72
2019-02-26T05:43:06.810Z,20.72
2019-02-26T05:44:08.339Z,20.73
2019-02-26T05:45:09.148Z,20.74
2019-02-26T05:46:06.218Z,20.74
2019-02-26T05:47:06.172Z,20.73
2019-02-26T05:48:06.126Z,20.82
2019-02-26T05:49:09.612Z,20.72
2019-02-26T05:50:09.067Z,20.82
2019-02-26T05:51:08.828Z,20.72
2019-02-26T05:52:07.138Z,20.82
2019-02-26T05:53:07.588Z,20.77
2019-02-26T05:54:08.273Z,20.73
2019-02-26T05:55:05.805Z,20.64
2019-02-26T05:56:05.753Z,20.76
2019-02-26T05:57:06.742Z,20.73
2019-02-26T05:58:07.556Z,20.73
2019-02-26T05:59:07.462Z,20.76
2019-02-26T06:00:08.119Z,20.77
2019-02-26T06:01:05.520Z,20.76
2019-02-26T06:02:05.473Z,20.74
2019-02-26T06:03:07.179Z,20.80
2019-02-26T06:04:07.707Z,20.74
2019-02-26T06:05:05.340Z,20.73
2019-02-26T06:06:05.288Z,20.80
2019-02-26T06:07:05.239Z,20.73
2019-02-26T06:08:05.194Z,20.67
2019-02-26T06:09:07.610Z,20.76
2019-02-26T06:10:05.101Z,20.74
2019-02-26T06:11:05.054Z,20.74
2019-02-26T06:12:05.012Z,20.69
2019-02-26T06:13:07.509Z,20.76
2019-02-26T06:14:09.126Z,20.76
2019-02-26T06:15:07.792Z,20.73
2019-02-26T06:16:06.946Z,20.77
2019-02-26T06:17:04.775Z,20.70
2019-02-26T06:18:04.729Z,20.73
2019-02-26T06:19:06.141Z,20.82
2019-02-26T06:20:07.447Z,20.77
2019-02-26T06:21:04.590Z,20.82
2019-02-26T06:22:04.542Z,20.85
2019-02-26T06:23:04.497Z,20.82
2019-02-26T06:24:04.465Z,20.85
2019-02-26T06:25:09.591Z,20.88
2019-02-26T06:26:09.300Z,20.80
2019-02-26T06:27:08.629Z,20.82
2019-02-26T06:28:06.871Z,20.85
2019-02-26T06:29:04.217Z,20.77
2019-02-26T06:30:07.506Z,20.85
2019-02-26T06:31:04.123Z,20.84
2019-02-26T06:32:05.314Z,20.88
2019-02-26T06:33:04.861Z,20.84
2019-02-26T06:34:06.418Z,20.85
2019-02-26T06:35:06.102Z,20.85
2019-02-26T06:36:04.757Z,20.82
2019-02-26T06:37:05.137Z,20.87
2019-02-26T06:38:04.588Z,20.79
2019-02-26T06:39:05.938Z,20.80
2019-02-26T06:40:05.564Z,20.84
2019-02-26T06:41:03.659Z,20.84
2019-02-26T06:42:05.279Z,20.88
2019-02-26T06:43:03.565Z,20.88
2019-02-26T06:44:03.519Z,20.80
2019-02-26T06:45:05.632Z,20.85
2019-02-26T06:46:05.349Z,20.82
2019-02-26T06:47:04.787Z,20.80
2019-02-26T06:48:03.331Z,20.85
2019-02-26T06:49:03.288Z,20.89
2019-02-26T06:50:05.590Z,20.94
2019-02-26T06:51:04.655Z,20.87
2019-02-26T06:52:03.147Z,20.85
2019-02-26T06:53:04.533Z,20.92
2019-02-26T06:54:03.053Z,20.82
2019-02-26T06:55:05.334Z,20.92
2019-02-26T06:56:03.062Z,20.94
2019-02-26T06:57:02.913Z,20.92
2019-02-26T06:58:02.866Z,20.91
2019-02-26T06:59:04.819Z,20.89
2019-02-26T07:00:04.266Z,20.89
2019-02-26T07:01:02.728Z,20.94
2019-02-26T07:02:02.679Z,20.98
2019-02-26T07:03:02.803Z,20.98
2019-02-26T07:04:02.588Z,20.89
2019-02-26T07:05:02.543Z,20.99
2019-02-26T07:06:04.834Z,20.97
2019-02-26T07:07:04.298Z,20.91
2019-02-26T07:08:04.268Z,20.94
2019-02-26T07:09:02.355Z,20.94
2019-02-26T07:10:02.308Z,20.94
2019-02-26T07:11:03.851Z,20.98
2019-02-26T07:12:02.218Z,21.03
2019-02-26T07:13:04.316Z,20.92
2019-02-26T07:14:03.608Z,20.91
2019-02-26T07:15:02.075Z,20.99
2019-02-26T07:16:04.603Z,20.95
2019-02-26T07:17:01.982Z,20.99
2019-02-26T07:18:04.434Z,21.06
2019-02-26T07:19:03.963Z,21.01
2019-02-26T07:20:03.175Z,21.04
2019-02-26T07:21:01.798Z,21.03
2019-02-26T07:22:01.750Z,21.01
2019-02-26T07:23:03.407Z,21.01
2019-02-26T07:24:03.451Z,20.97
2019-02-26T07:25:01.611Z,20.99
2019-02-26T07:26:01.563Z,21.04
2019-02-26T07:27:02.469Z,21.01
2019-02-26T07:28:02.957Z,21.12
2019-02-26T07:29:03.351Z,21.13
2019-02-26T07:30:01.381Z,21.12
2019-02-26T07:31:02.743Z,21.13
2019-02-26T07:32:01.286Z,21.17
2019-02-26T07:33:02.945Z,21.19
2019-02-26T07:34:03.081Z,21.22
2019-02-26T07:35:01.145Z,21.24
2019-02-26T07:36:02.361Z,21.31
2019-02-26T07:37:01.057Z,21.31
2019-02-26T07:38:01.713Z,21.38
2019-02-26T07:39:00.965Z,21.37
2019-02-26T07:40:00.919Z,21.35
2019-02-26T07:41:01.952Z,21.42
2019-02-26T07:42:00.820Z,21.42
2019-02-26T07:43:04.858Z,21.52
2019-02-26T07:44:00.728Z,21.40
2019-02-26T07:45:00.681Z,21.43
2019-02-26T07:46:00.635Z,21.37
2019-02-26T07:47:03.097Z,21.52
2019-02-26T07:48:01.017Z,21.38
2019-02-26T07:49:02.631Z,21.47
2019-02-26T07:50:01.660Z,21.38
2019-02-26T07:51:00.402Z,21.42
2019-02-26T07:52:03.242Z,21.38
2019-02-26T07:53:00.361Z,21.42
2019-02-26T07:54:00.756Z,21.49
2019-02-26T07:55:00.242Z,21.47
2019-02-26T07:56:01.754Z,21.46
2019-02-26T07:57:02.705Z,21.56
2019-02-26T07:58:00.080Z,21.54
2019-02-26T07:59:03.810Z,21.68
2019-02-26T07:59:59.985Z,21.69
2019-02-26T08:00:59.938Z,21.69
2019-02-26T08:02:01.760Z,21.71
2019-02-26T08:03:01.964Z,21.82
2019-02-26T08:03:59.800Z,21.88
2019-02-26T08:04:59.753Z,21.77
2019-02-26T08:06:04.112Z,21.90
2019-02-26T08:07:01.479Z,21.82
2019-02-26T08:07:59.614Z,21.84
2019-02-26T08:08:59.568Z,21.86
2019-02-26T08:09:59.529Z,21.88
2019-02-26T08:10:59.473Z,21.92
2019-02-26T08:11:59.456Z,21.88
2019-02-26T08:13:01.146Z,22.02
2019-02-26T08:14:01.481Z,21.98
2019-02-26T08:14:59.292Z,22.06
2019-02-26T08:16:00.230Z,22.17
2019-02-26T08:17:01.345Z,22.30
2019-02-26T08:18:01.296Z,22.43
2019-02-26T08:19:01.311Z,22.51
2019-02-26T08:19:59.058Z,22.52
2019-02-26T08:21:00.705Z,22.75
2019-02-26T08:21:59.014Z,22.86
2019-02-26T08:23:01.233Z,22.94
2019-02-26T08:23:58.881Z,23.10
2019-02-26T08:24:58.829Z,23.05
2019-02-26T08:26:00.420Z,23.17
2019-02-26T08:26:58.736Z,23.19
2019-02-26T08:28:01.021Z,23.05
2019-02-26T08:29:00.203Z,23.10
2019-02-26T08:30:00.738Z,23.04
2019-02-26T08:30:58.570Z,23.07
2019-02-26T08:31:59.604Z,22.98
2019-02-26T08:32:59.731Z,22.94
2019-02-26T08:33:58.415Z,22.85
2019-02-26T08:34:59.989Z,22.86
2019-02-26T08:35:58.326Z,22.91
2019-02-26T08:36:58.278Z,22.88
2019-02-26T08:37:58.231Z,22.91
2019-02-26T08:38:58.188Z,22.88
2019-02-26T08:39:58.240Z,22.88
2019-02-26T08:40:58.095Z,22.85
2019-02-26T08:41:58.048Z,22.92
2019-02-26T08:42:58.002Z,22.97
2019-02-26T08:43:58.841Z,23.10
2019-02-26T08:44:58.297Z,23.07
2019-02-26T08:45:57.864Z,23.20
2019-02-26T08:46:57.818Z,23.43
2019-02-26T08:47:57.774Z,23.42
2019-02-26T08:48:57.728Z,23.73
2019-02-26T08:49:58.896Z,23.93
2019-02-26T08:51:00.917Z,24.08
2019-02-26T08:51:57.591Z,24.12
2019-02-26T08:52:58.593Z,24.31
2019-02-26T08:53:57.502Z,24.45
2019-02-26T08:54:57.453Z,24.46
2019-02-26T08:55:58.838Z,24.42
2019-02-26T08:56:57.363Z,24.42
2019-02-26T08:57:57.317Z,24.20
2019-02-26T08:58:58.470Z,24.03
2019-02-26T08:59:57.225Z,23.93
2019-02-26T09:00:57.179Z,23.73
2019-02-26T09:01:57.138Z,23.61
2019-02-26T09:02:57.119Z,23.48
2019-02-26T09:03:58.944Z,23.47
2019-02-26T09:04:59.135Z,23.38
2019-02-26T09:06:10.165Z,23.31
2019-02-26T09:06:57.637Z,23.16
2019-02-26T09:07:56.911Z,23.20
2019-02-26T09:08:57.952Z,23.07
2019-02-26T09:09:57.610Z,23.13
2019-02-26T09:10:56.724Z,23.00
2019-02-26T09:11:58.896Z,22.98
2019-02-26T09:12:56.634Z,22.82
2019-02-26T09:13:59.553Z,22.90
2019-02-26T09:14:56.552Z,22.82
2019-02-26T09:16:00.071Z,22.79
2019-02-26T09:16:57.071Z,22.67
2019-02-26T09:17:56.405Z,22.65
2019-02-26T09:18:56.369Z,22.57
2019-02-26T09:20:08.486Z,22.54
2019-02-26T09:20:56.268Z,22.52
2019-02-26T09:21:56.221Z,22.43
2019-02-26T09:22:56.918Z,22.42
2019-02-26T09:23:57.033Z,22.33
2019-02-26T09:24:57.003Z,22.33
2019-02-26T09:25:57.054Z,22.27
2019-02-26T09:26:57.573Z,22.30
2019-02-26T09:27:55.996Z,22.30
2019-02-26T09:28:57.158Z,22.35
2019-02-26T09:29:55.854Z,22.25
2019-02-26T09:30:56.421Z,22.24
2019-02-26T09:31:55.763Z,22.33
2019-02-26T09:32:55.717Z,22.35
2019-02-26T09:33:55.669Z,22.30
2019-02-26T09:34:57.401Z,22.31
2019-02-26T09:35:56.726Z,22.25
2019-02-26T09:36:57.696Z,22.25
2019-02-26T09:37:58.450Z,22.36
2019-02-26T09:38:55.442Z,22.33
2019-02-26T09:39:57.361Z,22.28
2019-02-26T09:40:57.123Z,22.35
2019-02-26T09:41:57.091Z,22.36
2019-02-26T09:42:58.098Z,22.31
2019-02-26T09:43:55.212Z,22.24
2019-02-26T09:44:57.210Z,22.24
2019-02-26T09:45:55.121Z,22.35
2019-02-26T09:46:55.888Z,22.25
2019-02-26T09:47:57.768Z,22.43
2019-02-26T09:48:54.982Z,22.43
2019-02-26T09:49:56.116Z,22.40
2019-02-26T09:50:54.890Z,22.40
2019-02-26T09:51:56.738Z,22.42
2019-02-26T09:52:58.141Z,22.40
2019-02-26T09:53:56.528Z,22.43
2019-02-26T09:54:55.221Z,22.43
2019-02-26T09:55:54.661Z,22.43
2019-02-26T09:56:54.613Z,22.40
2019-02-26T09:57:54.567Z,22.45
2019-02-26T09:58:54.521Z,22.39
2019-02-26T09:59:55.280Z,22.45
2019-02-26T10:00:54.438Z,22.39
2019-02-26T10:01:56.431Z,22.39
2019-02-26T10:02:54.345Z,22.45
2019-02-26T10:03:55.972Z,22.40
2019-02-26T10:04:54.474Z,22.37
2019-02-26T10:05:55.889Z,22.37
2019-02-26T10:06:54.154Z,22.42
2019-02-26T10:07:56.875Z,22.43
2019-02-26T10:08:56.015Z,22.43
2019-02-26T10:09:54.015Z,22.43
2019-02-26T10:10:55.004Z,22.51
2019-02-26T10:11:53.924Z,22.39
2019-02-26T10:12:56.540Z,22.37
2019-02-26T10:13:53.831Z,22.47
2019-02-26T10:14:54.657Z,22.37
2019-02-26T10:15:53.740Z,22.40
2019-02-26T10:16:55.036Z,22.43
2019-02-26T10:17:53.651Z,22.42
2019-02-26T10:18:54.914Z,22.43
2019-02-26T10:19:54.405Z,22.45
2019-02-26T10:20:54.689Z,22.40
2019-02-26T10:21:53.464Z,22.49
2019-02-26T10:22:55.623Z,22.46
2019-02-26T10:23:54.143Z,22.51
2019-02-26T10:24:53.325Z,22.37
2019-02-26T10:25:57.406Z,22.39
2019-02-26T10:26:53.283Z,22.46
2019-02-26T10:27:53.187Z,22.42
2019-02-26T10:28:58.144Z,22.46
2019-02-26T10:29:53.095Z,22.47
2019-02-26T10:30:55.022Z,22.49
2019-02-26T10:31:56.120Z,22.47
2019-02-26T10:32:53.057Z,22.47
2019-02-26T10:33:52.910Z,22.55
2019-02-26T10:34:52.866Z,22.52
2019-02-26T10:35:52.819Z,22.49
2019-02-26T10:36:52.774Z,22.52
2019-02-26T10:37:52.727Z,22.55
2019-02-26T10:38:53.199Z,22.49
2019-02-26T10:39:54.940Z,22.45
2019-02-26T10:40:56.208Z,22.49
2019-02-26T10:41:52.543Z,22.46
2019-02-26T10:42:52.497Z,22.47
2019-02-26T10:43:52.451Z,22.54
2019-02-26T10:44:52.404Z,22.49
2019-02-26T10:45:54.427Z,22.46
2019-02-26T10:46:52.313Z,22.46
2019-02-26T10:47:54.195Z,22.46
2019-02-26T10:48:52.859Z,22.58
2019-02-26T10:49:53.797Z,22.60
2019-02-26T10:50:52.145Z,22.55
2019-02-26T10:51:52.082Z,22.55
2019-02-26T10:52:52.805Z,22.58
2019-02-26T10:53:52.041Z,22.57
2019-02-26T10:54:51.996Z,22.57
2019-02-26T10:55:51.899Z,22.60
2019-02-26T10:56:51.854Z,22.57
2019-02-26T10:57:52.522Z,22.57
2019-02-26T10:58:54.695Z,22.60
2019-02-26T10:59:51.716Z,22.60
2019-02-26T11:00:53.187Z,22.58
2019-02-26T11:01:53.228Z,22.58
2019-02-26T11:02:54.123Z,22.52
2019-02-26T11:03:52.862Z,22.62
2019-02-26T11:04:53.542Z,22.52
2019-02-26T11:05:52.291Z,22.58
2019-02-26T11:06:51.393Z,22.60
2019-02-26T11:07:53.150Z,22.55
2019-02-26T11:08:53.036Z,22.55
2019-02-26T11:09:53.624Z,22.61
2019-02-26T11:10:52.391Z,22.61
2019-02-26T11:11:51.164Z,22.60
2019-02-26T11:12:53.567Z,22.60
2019-02-26T11:13:53.704Z,22.51
2019-02-26T11:14:51.026Z,22.51
2019-02-26T11:15:53.689Z,22.55
2019-02-26T11:16:50.936Z,22.49
2019-02-26T11:17:53.186Z,22.54
2019-02-26T11:18:50.841Z,22.54
2019-02-26T11:19:50.797Z,22.58
2019-02-26T11:20:52.814Z,22.51
2019-02-26T11:21:55.410Z,22.60
2019-02-26T11:22:52.065Z,22.57
2019-02-26T11:23:50.613Z,22.54
2019-02-26T11:24:51.270Z,22.58
2019-02-26T11:25:50.520Z,22.60
2019-02-26T11:26:50.474Z,22.55
2019-02-26T11:27:50.438Z,22.57
2019-02-26T11:28:50.382Z,22.57
2019-02-26T11:29:52.062Z,22.51
2019-02-26T11:30:52.167Z,22.49
2019-02-26T11:31:50.244Z,22.52
2019-02-26T11:32:50.200Z,22.51
2019-02-26T11:33:50.158Z,22.49
2019-02-26T11:34:50.901Z,22.52
2019-02-26T11:35:51.487Z,22.43
2019-02-26T11:36:50.016Z,22.47
2019-02-26T11:37:52.260Z,22.42
2019-02-26T11:38:49.974Z,22.47
2019-02-26T11:39:49.880Z,22.47
2019-02-26T11:40:49.840Z,22.46
2019-02-26T11:41:51.385Z,22.45
2019-02-26T11:42:51.239Z,22.45
2019-02-26T11:43:49.694Z,22.49
2019-02-26T11:44:49.649Z,22.45
2019-02-26T11:45:49.602Z,22.47
2019-02-26T11:46:51.375Z,22.46
2019-02-26T11:47:49.513Z,22.49
2019-02-26T11:48:50.201Z,22.49
2019-02-26T11:49:49.417Z,22.43
2019-02-26T11:50:49.386Z,22.46
2019-02-26T11:51:49.327Z,22.52
2019-02-26T11:52:53.690Z,22.58
2019-02-26T11:53:49.235Z,22.54
2019-02-26T11:54:49.190Z,22.61
2019-02-26T11:55:51.735Z,22.67
2019-02-26T11:56:49.798Z,22.67
2019-02-26T11:57:49.778Z,22.64
2019-02-26T11:58:49.012Z,22.62
2019-02-26T11:59:48.958Z,22.65
2019-02-26T12:00:50.564Z,22.60
2019-02-26T12:01:48.866Z,22.68
2019-02-26T12:02:48.821Z,22.58
2019-02-26T12:03:48.775Z,22.57
2019-02-26T12:04:48.734Z,22.54
2019-02-26T12:05:48.682Z,22.51
2019-02-26T12:06:48.640Z,22.64
2019-02-26T12:07:49.275Z,22.58
2019-02-26T12:08:50.054Z,22.60
2019-02-26T12:09:48.500Z,22.55
2019-02-26T12:10:48.453Z,22.54
2019-02-26T12:11:48.409Z,22.54
2019-02-26T12:12:51.041Z,22.55
2019-02-26T12:13:50.250Z,22.62
2019-02-26T12:14:48.595Z,22.55
2019-02-26T12:15:48.225Z,22.61
2019-02-26T12:16:48.180Z,22.55
2019-02-26T12:17:49.313Z,22.60
2019-02-26T12:18:48.088Z,22.46
2019-02-26T12:19:48.625Z,22.51
2019-02-26T12:20:48.749Z,22.47
2019-02-26T12:21:49.397Z,22.51
2019-02-26T12:22:49.619Z,22.49
2019-02-26T12:23:47.856Z,22.49
2019-02-26T12:24:53.011Z,22.46
2019-02-26T12:25:49.849Z,22.47
2019-02-26T12:26:49.860Z,22.45
2019-02-26T12:27:48.254Z,22.51
2019-02-26T12:28:47.626Z,22.39
2019-02-26T12:29:48.295Z,22.43
2019-02-26T12:30:47.535Z,22.39
2019-02-26T12:31:47.491Z,22.37
2019-02-26T12:32:50.021Z,22.42
2019-02-26T12:33:47.396Z,22.40
2019-02-26T12:34:48.536Z,22.39
2019-02-26T12:35:47.305Z,22.37
2019-02-26T12:36:48.078Z,22.43
2019-02-26T12:37:50.171Z,22.42
2019-02-26T12:38:49.654Z,22.39
2019-02-26T12:39:49.569Z,22.40
2019-02-26T12:40:49.607Z,22.46
2019-02-26T12:41:48.098Z,22.40
2019-02-26T12:42:46.995Z,22.40
2019-02-26T12:43:46.939Z,22.37
2019-02-26T12:44:46.894Z,22.49
2019-02-26T12:45:46.853Z,22.36
2019-02-26T12:46:47.803Z,22.39
2019-02-26T12:47:49.429Z,22.39
2019-02-26T12:48:47.783Z,22.47
2019-02-26T12:49:46.662Z,22.39
2019-02-26T12:50:46.620Z,22.45
2019-02-26T12:51:47.622Z,22.47